sensor_id;sensor_type;location;lat;lon;timestamp;P1;durP1;ratioP1;P2;durP2;ratioP2
74267;SDS011;62638;51.362;12.472;2023-05-07T00:00:11;10.30;;;4.57;;
74267;SDS011;62638;51.362;12.472;2023-05-07T00:02:40;10.20;;;4.65;;
74267;SDS011;62638;51.362;12.472;2023-05-07T00:05:05;6.85;;;3.38;;
74267;SDS011;62638;51.362;12.472;2023-05-07T00:07:31;8.75;;;2.88;;
74267;SDS011;62638;51.362;12.472;2023-05-07T00:09:56;10.00;;;3.27;;
74267;SDS011;62638;51.362;12.472;2023-05-07T00:12:22;8.97;;;4.43;;
74267;SDS011;62638;51.362;12.472;2023-05-07T00:14:47;8.57;;;4.03;;
74267;SDS011;62638;51.362;12.472;2023-05-07T00:17:12;8.98;;;3.30;;
74267;SDS011;62638;51.362;12.472;2023-05-07T00:19:37;5.75;;;2.63;;
74267;SDS011;62638;51.362;12.472;2023-05-07T00:22:03;8.50;;;2.80;;
74267;SDS011;62638;51.362;12.472;2023-05-07T00:24:28;9.98;;;3.58;;
74267;SDS011;62638;51.362;12.472;2023-05-07T00:26:53;6.23;;;2.87;;
74267;SDS011;62638;51.362;12.472;2023-05-07T00:29:19;5.97;;;3.13;;
74267;SDS011;62638;51.362;12.472;2023-05-07T00:31:44;7.13;;;3.47;;
74267;SDS011;62638;51.362;12.472;2023-05-07T00:34:09;8.38;;;3.95;;
74267;SDS011;62638;51.362;12.472;2023-05-07T00:36:35;7.25;;;3.65;;
74267;SDS011;62638;51.362;12.472;2023-05-07T00:39:00;13.30;;;4.60;;
74267;SDS011;62638;51.362;12.472;2023-05-07T00:41:28;11.70;;;4.80;;
74267;SDS011;62638;51.362;12.472;2023-05-07T00:43:55;8.18;;;3.72;;
74267;SDS011;62638;51.362;12.472;2023-05-07T00:46:20;11.35;;;4.55;;
74267;SDS011;62638;51.362;12.472;2023-05-07T00:48:46;10.30;;;4.03;;
74267;SDS011;62638;51.362;12.472;2023-05-07T00:51:12;10.18;;;4.10;;
74267;SDS011;62638;51.362;12.472;2023-05-07T00:53:38;13.18;;;4.40;;
74267;SDS011;62638;51.362;12.472;2023-05-07T00:56:04;6.47;;;3.40;;
74267;SDS011;62638;51.362;12.472;2023-05-07T00:58:31;8.80;;;3.45;;
74267;SDS011;62638;51.362;12.472;2023-05-07T01:00:57;9.88;;;4.20;;
74267;SDS011;62638;51.362;12.472;2023-05-07T01:03:23;8.80;;;4.57;;
74267;SDS011;62638;51.362;12.472;2023-05-07T01:05:48;12.40;;;4.20;;
74267;SDS011;62638;51.362;12.472;2023-05-07T01:08:15;12.85;;;5.05;;
74267;SDS011;62638;51.362;12.472;2023-05-07T01:10:41;9.70;;;4.43;;
74267;SDS011;62638;51.362;12.472;2023-05-07T01:13:08;7.50;;;3.65;;
74267;SDS011;62638;51.362;12.472;2023-05-07T01:15:35;11.98;;;4.53;;
74267;SDS011;62638;51.362;12.472;2023-05-07T01:18:00;8.90;;;4.22;;
74267;SDS011;62638;51.362;12.472;2023-05-07T01:20:26;11.18;;;4.30;;
74267;SDS011;62638;51.362;12.472;2023-05-07T01:22:53;9.68;;;4.68;;
74267;SDS011;62638;51.362;12.472;2023-05-07T01:25:18;13.48;;;5.15;;
74267;SDS011;62638;51.362;12.472;2023-05-07T01:27:44;11.00;;;5.07;;
74267;SDS011;62638;51.362;12.472;2023-05-07T01:30:09;9.07;;;5.20;;
74267;SDS011;62638;51.362;12.472;2023-05-07T01:32:43;11.07;;;4.55;;
74267;SDS011;62638;51.362;12.472;2023-05-07T01:35:13;9.75;;;4.20;;
74267;SDS011;62638;51.362;12.472;2023-05-07T01:37:43;12.18;;;5.32;;
74267;SDS011;62638;51.362;12.472;2023-05-07T01:40:10;12.57;;;5.97;;
74267;SDS011;62638;51.362;12.472;2023-05-07T01:42:35;11.60;;;4.75;;
74267;SDS011;62638;51.362;12.472;2023-05-07T01:45:01;10.70;;;4.93;;
74267;SDS011;62638;51.362;12.472;2023-05-07T01:47:27;5.57;;;3.03;;
74267;SDS011;62638;51.362;12.472;2023-05-07T01:49:56;12.68;;;5.28;;
74267;SDS011;62638;51.362;12.472;2023-05-07T01:52:22;12.68;;;5.53;;
74267;SDS011;62638;51.362;12.472;2023-05-07T01:54:47;13.83;;;6.13;;
74267;SDS011;62638;51.362;12.472;2023-05-07T01:57:12;13.40;;;5.23;;
74267;SDS011;62638;51.362;12.472;2023-05-07T01:59:38;10.67;;;5.03;;
74267;SDS011;62638;51.362;12.472;2023-05-07T02:02:03;8.63;;;4.20;;
74267;SDS011;62638;51.362;12.472;2023-05-07T02:04:28;9.13;;;5.28;;
74267;SDS011;62638;51.362;12.472;2023-05-07T02:06:54;9.90;;;4.93;;
74267;SDS011;62638;51.362;12.472;2023-05-07T02:09:19;9.70;;;4.60;;
74267;SDS011;62638;51.362;12.472;2023-05-07T02:11:44;12.73;;;6.15;;
74267;SDS011;62638;51.362;12.472;2023-05-07T02:14:10;12.75;;;5.93;;
74267;SDS011;62638;51.362;12.472;2023-05-07T02:16:35;12.88;;;5.03;;
74267;SDS011;62638;51.362;12.472;2023-05-07T02:19:00;11.97;;;4.67;;
74267;SDS011;62638;51.362;12.472;2023-05-07T02:21:26;12.82;;;5.80;;
74267;SDS011;62638;51.362;12.472;2023-05-07T02:23:51;10.90;;;4.97;;
74267;SDS011;62638;51.362;12.472;2023-05-07T02:26:16;16.57;;;5.93;;
74267;SDS011;62638;51.362;12.472;2023-05-07T02:28:41;9.60;;;4.53;;
74267;SDS011;62638;51.362;12.472;2023-05-07T02:31:07;7.27;;;4.43;;
74267;SDS011;62638;51.362;12.472;2023-05-07T02:33:32;11.07;;;5.17;;
74267;SDS011;62638;51.362;12.472;2023-05-07T02:36:04;13.63;;;5.85;;
74267;SDS011;62638;51.362;12.472;2023-05-07T02:38:33;10.52;;;5.03;;
74267;SDS011;62638;51.362;12.472;2023-05-07T02:40:59;14.27;;;4.63;;
74267;SDS011;62638;51.362;12.472;2023-05-07T02:43:24;15.50;;;5.13;;
74267;SDS011;62638;51.362;12.472;2023-05-07T02:45:59;14.55;;;7.13;;
74267;SDS011;62638;51.362;12.472;2023-05-07T02:48:32;12.07;;;4.70;;
74267;SDS011;62638;51.362;12.472;2023-05-07T02:50:57;15.00;;;4.97;;
74267;SDS011;62638;51.362;12.472;2023-05-07T02:53:23;11.85;;;6.18;;
74267;SDS011;62638;51.362;12.472;2023-05-07T02:55:51;10.23;;;4.75;;
74267;SDS011;62638;51.362;12.472;2023-05-07T02:58:17;11.35;;;4.75;;
74267;SDS011;62638;51.362;12.472;2023-05-07T03:00:42;7.57;;;5.10;;
74267;SDS011;62638;51.362;12.472;2023-05-07T03:03:07;9.93;;;4.77;;
74267;SDS011;62638;51.362;12.472;2023-05-07T03:05:32;8.57;;;4.80;;
74267;SDS011;62638;51.362;12.472;2023-05-07T03:07:58;14.67;;;6.30;;
74267;SDS011;62638;51.362;12.472;2023-05-07T03:10:23;9.53;;;4.17;;
74267;SDS011;62638;51.362;12.472;2023-05-07T03:12:48;13.27;;;4.97;;
74267;SDS011;62638;51.362;12.472;2023-05-07T03:15:13;11.50;;;5.60;;
74267;SDS011;62638;51.362;12.472;2023-05-07T03:17:39;11.77;;;5.33;;
74267;SDS011;62638;51.362;12.472;2023-05-07T03:20:04;15.18;;;5.53;;
74267;SDS011;62638;51.362;12.472;2023-05-07T03:22:30;13.57;;;5.68;;
74267;SDS011;62638;51.362;12.472;2023-05-07T03:24:55;13.50;;;5.93;;
74267;SDS011;62638;51.362;12.472;2023-05-07T03:27:21;13.03;;;5.67;;
74267;SDS011;62638;51.362;12.472;2023-05-07T03:29:46;15.30;;;6.40;;
74267;SDS011;62638;51.362;12.472;2023-05-07T03:32:11;12.13;;;5.23;;
74267;SDS011;62638;51.362;12.472;2023-05-07T03:34:36;10.33;;;4.63;;
74267;SDS011;62638;51.362;12.472;2023-05-07T03:37:02;14.97;;;6.13;;
74267;SDS011;62638;51.362;12.472;2023-05-07T03:39:27;15.60;;;5.80;;
74267;SDS011;62638;51.362;12.472;2023-05-07T03:41:52;15.43;;;6.27;;
74267;SDS011;62638;51.362;12.472;2023-05-07T03:44:18;13.52;;;5.95;;
74267;SDS011;62638;51.362;12.472;2023-05-07T03:46:43;11.47;;;6.00;;
74267;SDS011;62638;51.362;12.472;2023-05-07T03:49:08;12.07;;;5.37;;
74267;SDS011;62638;51.362;12.472;2023-05-07T03:51:33;13.77;;;5.27;;
74267;SDS011;62638;51.362;12.472;2023-05-07T03:53:59;17.60;;;5.67;;
74267;SDS011;62638;51.362;12.472;2023-05-07T03:56:24;14.47;;;5.77;;
74267;SDS011;62638;51.362;12.472;2023-05-07T03:58:51;8.63;;;5.47;;
74267;SDS011;62638;51.362;12.472;2023-05-07T04:01:17;10.48;;;5.15;;
74267;SDS011;62638;51.362;12.472;2023-05-07T04:03:42;12.38;;;6.10;;
74267;SDS011;62638;51.362;12.472;2023-05-07T04:06:07;12.77;;;5.60;;
74267;SDS011;62638;51.362;12.472;2023-05-07T04:08:32;15.37;;;6.53;;
74267;SDS011;62638;51.362;12.472;2023-05-07T04:10:58;13.13;;;5.00;;
74267;SDS011;62638;51.362;12.472;2023-05-07T04:13:24;13.43;;;5.00;;
74267;SDS011;62638;51.362;12.472;2023-05-07T04:15:50;10.65;;;4.90;;
74267;SDS011;62638;51.362;12.472;2023-05-07T04:18:16;10.20;;;5.07;;
74267;SDS011;62638;51.362;12.472;2023-05-07T04:20:41;13.53;;;4.60;;
74267;SDS011;62638;51.362;12.472;2023-05-07T04:23:06;13.40;;;5.50;;
74267;SDS011;62638;51.362;12.472;2023-05-07T04:25:32;9.88;;;4.38;;
74267;SDS011;62638;51.362;12.472;2023-05-07T04:27:58;12.98;;;5.50;;
74267;SDS011;62638;51.362;12.472;2023-05-07T04:30:23;11.75;;;5.90;;
74267;SDS011;62638;51.362;12.472;2023-05-07T04:32:48;13.43;;;5.63;;
74267;SDS011;62638;51.362;12.472;2023-05-07T04:35:14;9.10;;;5.13;;
74267;SDS011;62638;51.362;12.472;2023-05-07T04:37:39;9.95;;;5.55;;
74267;SDS011;62638;51.362;12.472;2023-05-07T04:40:05;5.80;;;3.47;;
74267;SDS011;62638;51.362;12.472;2023-05-07T04:42:30;13.95;;;5.47;;
74267;SDS011;62638;51.362;12.472;2023-05-07T04:44:56;10.37;;;5.00;;
74267;SDS011;62638;51.362;12.472;2023-05-07T04:47:21;9.47;;;5.00;;
74267;SDS011;62638;51.362;12.472;2023-05-07T04:49:46;10.60;;;4.20;;
74267;SDS011;62638;51.362;12.472;2023-05-07T04:52:12;11.33;;;4.93;;
74267;SDS011;62638;51.362;12.472;2023-05-07T04:54:37;11.20;;;4.97;;
74267;SDS011;62638;51.362;12.472;2023-05-07T04:57:05;13.43;;;4.63;;
74267;SDS011;62638;51.362;12.472;2023-05-07T04:59:30;9.85;;;4.50;;
74267;SDS011;62638;51.362;12.472;2023-05-07T05:01:57;14.90;;;4.82;;
74267;SDS011;62638;51.362;12.472;2023-05-07T05:04:22;8.83;;;4.20;;
74267;SDS011;62638;51.362;12.472;2023-05-07T05:06:47;8.10;;;4.50;;
74267;SDS011;62638;51.362;12.472;2023-05-07T05:09:13;8.23;;;4.87;;
74267;SDS011;62638;51.362;12.472;2023-05-07T05:11:39;9.43;;;4.72;;
74267;SDS011;62638;51.362;12.472;2023-05-07T05:14:04;9.70;;;3.73;;
74267;SDS011;62638;51.362;12.472;2023-05-07T05:16:29;9.13;;;4.20;;
74267;SDS011;62638;51.362;12.472;2023-05-07T05:18:55;7.35;;;3.80;;
74267;SDS011;62638;51.362;12.472;2023-05-07T05:21:20;7.13;;;3.30;;
74267;SDS011;62638;51.362;12.472;2023-05-07T05:23:45;8.95;;;4.30;;
74267;SDS011;62638;51.362;12.472;2023-05-07T05:26:11;8.00;;;3.60;;
74267;SDS011;62638;51.362;12.472;2023-05-07T05:28:36;6.90;;;3.88;;
74267;SDS011;62638;51.362;12.472;2023-05-07T05:31:01;7.28;;;3.70;;
74267;SDS011;62638;51.362;12.472;2023-05-07T05:33:27;7.07;;;4.20;;
74267;SDS011;62638;51.362;12.472;2023-05-07T05:35:53;7.90;;;4.00;;
74267;SDS011;62638;51.362;12.472;2023-05-07T05:38:19;8.82;;;4.15;;
74267;SDS011;62638;51.362;12.472;2023-05-07T05:40:45;8.98;;;4.50;;
74267;SDS011;62638;51.362;12.472;2023-05-07T05:43:11;6.60;;;3.90;;
74267;SDS011;62638;51.362;12.472;2023-05-07T05:45:36;8.20;;;3.87;;
74267;SDS011;62638;51.362;12.472;2023-05-07T05:48:01;7.50;;;3.40;;
74267;SDS011;62638;51.362;12.472;2023-05-07T05:50:27;7.10;;;4.10;;
74267;SDS011;62638;51.362;12.472;2023-05-07T05:52:52;8.93;;;4.07;;
74267;SDS011;62638;51.362;12.472;2023-05-07T05:55:17;13.27;;;4.23;;
74267;SDS011;62638;51.362;12.472;2023-05-07T05:57:43;9.30;;;4.63;;
74267;SDS011;62638;51.362;12.472;2023-05-07T06:00:08;6.23;;;3.90;;
74267;SDS011;62638;51.362;12.472;2023-05-07T06:02:36;10.48;;;5.60;;
74267;SDS011;62638;51.362;12.472;2023-05-07T06:05:01;9.05;;;4.68;;
74267;SDS011;62638;51.362;12.472;2023-05-07T06:07:28;6.38;;;3.55;;
74267;SDS011;62638;51.362;12.472;2023-05-07T06:09:53;10.53;;;4.87;;
74267;SDS011;62638;51.362;12.472;2023-05-07T06:12:18;8.97;;;4.80;;
74267;SDS011;62638;51.362;12.472;2023-05-07T06:14:44;11.33;;;4.70;;
74267;SDS011;62638;51.362;12.472;2023-05-07T06:17:09;10.48;;;4.78;;
74267;SDS011;62638;51.362;12.472;2023-05-07T06:19:34;10.32;;;5.28;;
74267;SDS011;62638;51.362;12.472;2023-05-07T06:21:59;9.93;;;5.18;;
74267;SDS011;62638;51.362;12.472;2023-05-07T06:24:26;10.20;;;4.78;;
74267;SDS011;62638;51.362;12.472;2023-05-07T06:26:52;9.93;;;5.43;;
74267;SDS011;62638;51.362;12.472;2023-05-07T06:29:17;8.17;;;4.37;;
74267;SDS011;62638;51.362;12.472;2023-05-07T06:31:43;10.10;;;4.72;;
74267;SDS011;62638;51.362;12.472;2023-05-07T06:34:08;8.37;;;3.77;;
74267;SDS011;62638;51.362;12.472;2023-05-07T06:36:33;8.57;;;4.50;;
74267;SDS011;62638;51.362;12.472;2023-05-07T06:38:59;12.73;;;5.60;;
74267;SDS011;62638;51.362;12.472;2023-05-07T06:41:24;10.77;;;5.13;;
74267;SDS011;62638;51.362;12.472;2023-05-07T06:43:50;8.80;;;5.05;;
74267;SDS011;62638;51.362;12.472;2023-05-07T06:46:16;10.57;;;5.35;;
74267;SDS011;62638;51.362;12.472;2023-05-07T06:48:41;11.97;;;5.20;;
74267;SDS011;62638;51.362;12.472;2023-05-07T06:51:06;15.63;;;5.57;;
74267;SDS011;62638;51.362;12.472;2023-05-07T06:53:31;6.25;;;3.95;;
74267;SDS011;62638;51.362;12.472;2023-05-07T06:55:57;14.18;;;5.80;;
74267;SDS011;62638;51.362;12.472;2023-05-07T06:58:22;12.60;;;4.87;;
74267;SDS011;62638;51.362;12.472;2023-05-07T07:00:48;8.30;;;3.75;;
74267;SDS011;62638;51.362;12.472;2023-05-07T07:03:13;9.68;;;3.95;;
74267;SDS011;62638;51.362;12.472;2023-05-07T07:05:40;9.98;;;4.38;;
74267;SDS011;62638;51.362;12.472;2023-05-07T07:08:06;8.27;;;4.15;;
74267;SDS011;62638;51.362;12.472;2023-05-07T07:10:32;15.10;;;5.07;;
74267;SDS011;62638;51.362;12.472;2023-05-07T07:12:57;3.53;;;2.13;;
74267;SDS011;62638;51.362;12.472;2023-05-07T07:15:22;16.77;;;4.07;;
74267;SDS011;62638;51.362;12.472;2023-05-07T07:17:49;7.40;;;3.38;;
74267;SDS011;62638;51.362;12.472;2023-05-07T07:20:15;15.30;;;6.10;;
74267;SDS011;62638;51.362;12.472;2023-05-07T07:22:41;7.57;;;3.88;;
74267;SDS011;62638;51.362;12.472;2023-05-07T07:25:06;9.83;;;4.27;;
74267;SDS011;62638;51.362;12.472;2023-05-07T07:27:31;7.20;;;3.28;;
74267;SDS011;62638;51.362;12.472;2023-05-07T07:29:57;13.40;;;5.87;;
74267;SDS011;62638;51.362;12.472;2023-05-07T07:32:22;12.47;;;4.60;;
74267;SDS011;62638;51.362;12.472;2023-05-07T07:34:47;16.53;;;7.13;;
74267;SDS011;62638;51.362;12.472;2023-05-07T07:37:13;6.25;;;3.40;;
74267;SDS011;62638;51.362;12.472;2023-05-07T07:39:38;12.97;;;5.17;;
74267;SDS011;62638;51.362;12.472;2023-05-07T07:42:03;4.13;;;2.55;;
74267;SDS011;62638;51.362;12.472;2023-05-07T07:44:28;8.02;;;3.55;;
74267;SDS011;62638;51.362;12.472;2023-05-07T07:46:54;9.73;;;4.30;;
74267;SDS011;62638;51.362;12.472;2023-05-07T07:49:19;6.90;;;3.27;;
74267;SDS011;62638;51.362;12.472;2023-05-07T07:51:45;8.00;;;3.97;;
74267;SDS011;62638;51.362;12.472;2023-05-07T07:54:10;4.60;;;2.70;;
74267;SDS011;62638;51.362;12.472;2023-05-07T07:56:35;6.18;;;3.60;;
74267;SDS011;62638;51.362;12.472;2023-05-07T07:59:01;6.30;;;3.00;;
74267;SDS011;62638;51.362;12.472;2023-05-07T08:01:26;7.93;;;3.40;;
74267;SDS011;62638;51.362;12.472;2023-05-07T08:03:51;5.38;;;2.95;;
74267;SDS011;62638;51.362;12.472;2023-05-07T08:06:17;6.43;;;3.28;;
74267;SDS011;62638;51.362;12.472;2023-05-07T08:08:43;5.13;;;2.83;;
74267;SDS011;62638;51.362;12.472;2023-05-07T08:11:08;3.07;;;1.57;;
74267;SDS011;62638;51.362;12.472;2023-05-07T08:13:33;4.85;;;3.30;;
74267;SDS011;62638;51.362;12.472;2023-05-07T08:15:59;5.10;;;2.00;;
74267;SDS011;62638;51.362;12.472;2023-05-07T08:18:25;3.80;;;1.80;;
74267;SDS011;62638;51.362;12.472;2023-05-07T08:20:50;3.53;;;2.38;;
74267;SDS011;62638;51.362;12.472;2023-05-07T08:23:15;6.33;;;2.47;;
74267;SDS011;62638;51.362;12.472;2023-05-07T08:25:41;4.47;;;2.47;;
74267;SDS011;62638;51.362;12.472;2023-05-07T08:28:07;3.90;;;2.17;;
74267;SDS011;62638;51.362;12.472;2023-05-07T08:30:33;3.42;;;2.03;;
74267;SDS011;62638;51.362;12.472;2023-05-07T08:32:59;5.33;;;2.53;;
74267;SDS011;62638;51.362;12.472;2023-05-07T08:35:25;5.18;;;2.28;;
74267;SDS011;62638;51.362;12.472;2023-05-07T08:37:51;5.82;;;2.80;;
74267;SDS011;62638;51.362;12.472;2023-05-07T08:40:17;6.35;;;2.97;;
74267;SDS011;62638;51.362;12.472;2023-05-07T08:42:42;3.27;;;2.00;;
74267;SDS011;62638;51.362;12.472;2023-05-07T08:45:09;5.18;;;2.88;;
74267;SDS011;62638;51.362;12.472;2023-05-07T08:47:39;4.57;;;2.50;;
74267;SDS011;62638;51.362;12.472;2023-05-07T08:50:08;4.10;;;2.25;;
74267;SDS011;62638;51.362;12.472;2023-05-07T08:52:33;7.18;;;2.97;;
74267;SDS011;62638;51.362;12.472;2023-05-07T08:55:00;5.45;;;3.17;;
74267;SDS011;62638;51.362;12.472;2023-05-07T08:57:27;5.40;;;2.80;;
74267;SDS011;62638;51.362;12.472;2023-05-07T08:59:52;3.90;;;2.23;;
74267;SDS011;62638;51.362;12.472;2023-05-07T09:02:18;6.67;;;2.90;;
74267;SDS011;62638;51.362;12.472;2023-05-07T09:04:43;4.07;;;2.15;;
74267;SDS011;62638;51.362;12.472;2023-05-07T09:07:08;5.70;;;2.77;;
74267;SDS011;62638;51.362;12.472;2023-05-07T09:09:34;6.05;;;2.42;;
74267;SDS011;62638;51.362;12.472;2023-05-07T09:11:59;6.30;;;2.90;;
74267;SDS011;62638;51.362;12.472;2023-05-07T09:14:25;9.43;;;4.50;;
74267;SDS011;62638;51.362;12.472;2023-05-07T09:16:54;7.18;;;3.28;;
74267;SDS011;62638;51.362;12.472;2023-05-07T09:19:23;24.92;;;7.60;;
74267;SDS011;62638;51.362;12.472;2023-05-07T09:21:49;6.00;;;2.83;;
74267;SDS011;62638;51.362;12.472;2023-05-07T09:24:15;6.38;;;3.53;;
74267;SDS011;62638;51.362;12.472;2023-05-07T09:26:40;6.88;;;3.42;;
74267;SDS011;62638;51.362;12.472;2023-05-07T09:29:07;9.17;;;3.57;;
74267;SDS011;62638;51.362;12.472;2023-05-07T09:31:36;6.35;;;3.38;;
74267;SDS011;62638;51.362;12.472;2023-05-07T09:34:04;8.48;;;4.30;;
74267;SDS011;62638;51.362;12.472;2023-05-07T09:36:29;6.03;;;3.35;;
74267;SDS011;62638;51.362;12.472;2023-05-07T09:38:58;5.43;;;2.97;;
74267;SDS011;62638;51.362;12.472;2023-05-07T09:41:25;4.00;;;2.00;;
74267;SDS011;62638;51.362;12.472;2023-05-07T09:43:54;6.57;;;3.53;;
74267;SDS011;62638;51.362;12.472;2023-05-07T09:46:19;4.30;;;2.53;;
74267;SDS011;62638;51.362;12.472;2023-05-07T09:48:52;7.10;;;3.38;;
74267;SDS011;62638;51.362;12.472;2023-05-07T09:51:24;5.57;;;2.67;;
74267;SDS011;62638;51.362;12.472;2023-05-07T09:53:53;3.28;;;1.98;;
74267;SDS011;62638;51.362;12.472;2023-05-07T09:56:18;5.38;;;2.72;;
74267;SDS011;62638;51.362;12.472;2023-05-07T09:58:45;2.67;;;1.60;;
74267;SDS011;62638;51.362;12.472;2023-05-07T10:01:11;3.58;;;2.10;;
74267;SDS011;62638;51.362;12.472;2023-05-07T10:03:37;4.72;;;2.30;;
74267;SDS011;62638;51.362;12.472;2023-05-07T10:06:08;3.25;;;1.92;;
74267;SDS011;62638;51.362;12.472;2023-05-07T10:08:35;4.22;;;2.15;;
74267;SDS011;62638;51.362;12.472;2023-05-07T10:11:03;4.65;;;2.63;;
74267;SDS011;62638;51.362;12.472;2023-05-07T10:13:29;4.35;;;2.15;;
74267;SDS011;62638;51.362;12.472;2023-05-07T10:15:55;4.40;;;2.38;;
74267;SDS011;62638;51.362;12.472;2023-05-07T10:18:21;5.53;;;2.33;;
74267;SDS011;62638;51.362;12.472;2023-05-07T10:20:48;5.07;;;2.42;;
74267;SDS011;62638;51.362;12.472;2023-05-07T10:23:18;3.88;;;2.30;;
74267;SDS011;62638;51.362;12.472;2023-05-07T10:25:48;4.00;;;1.80;;
74267;SDS011;62638;51.362;12.472;2023-05-07T10:28:13;5.90;;;3.13;;
74267;SDS011;62638;51.362;12.472;2023-05-07T10:30:47;2.63;;;1.77;;
74267;SDS011;62638;51.362;12.472;2023-05-07T10:33:26;5.07;;;2.92;;
74267;SDS011;62638;51.362;12.472;2023-05-07T10:35:55;4.15;;;2.58;;
74267;SDS011;62638;51.362;12.472;2023-05-07T10:38:26;5.50;;;2.58;;
74267;SDS011;62638;51.362;12.472;2023-05-07T10:40:52;6.15;;;3.85;;
74267;SDS011;62638;51.362;12.472;2023-05-07T10:43:18;7.10;;;3.05;;
74267;SDS011;62638;51.362;12.472;2023-05-07T10:45:43;5.85;;;3.17;;
74267;SDS011;62638;51.362;12.472;2023-05-07T10:48:27;8.45;;;4.07;;
74267;SDS011;62638;51.362;12.472;2023-05-07T10:50:53;6.60;;;3.83;;
74267;SDS011;62638;51.362;12.472;2023-05-07T10:53:45;5.90;;;2.83;;
74267;SDS011;62638;51.362;12.472;2023-05-07T10:56:23;6.37;;;3.10;;
74267;SDS011;62638;51.362;12.472;2023-05-07T10:58:50;4.82;;;2.85;;
74267;SDS011;62638;51.362;12.472;2023-05-07T11:01:15;3.55;;;2.83;;
74267;SDS011;62638;51.362;12.472;2023-05-07T11:07:10;3.70;;;2.53;;
74267;SDS011;62638;51.362;12.472;2023-05-07T11:15:12;7.35;;;3.30;;
74267;SDS011;62638;51.362;12.472;2023-05-07T11:23:54;4.50;;;1.63;;
74267;SDS011;62638;51.362;12.472;2023-05-07T11:26:18;3.60;;;1.85;;
74267;SDS011;62638;51.362;12.472;2023-05-07T11:28:43;6.32;;;3.22;;
74267;SDS011;62638;51.362;12.472;2023-05-07T11:31:09;7.37;;;3.73;;
74267;SDS011;62638;51.362;12.472;2023-05-07T11:33:35;6.85;;;3.85;;
74267;SDS011;62638;51.362;12.472;2023-05-07T11:36:04;7.00;;;2.60;;
74267;SDS011;62638;51.362;12.472;2023-05-07T11:38:30;4.95;;;2.92;;
74267;SDS011;62638;51.362;12.472;2023-05-07T11:40:59;3.65;;;2.25;;
74267;SDS011;62638;51.362;12.472;2023-05-07T11:43:29;3.08;;;2.20;;
74267;SDS011;62638;51.362;12.472;2023-05-07T11:46:04;6.28;;;3.05;;
74267;SDS011;62638;51.362;12.472;2023-05-07T11:48:31;4.63;;;2.22;;
74267;SDS011;62638;51.362;12.472;2023-05-07T11:51:03;6.72;;;3.42;;
74267;SDS011;62638;51.362;12.472;2023-05-07T11:53:36;4.18;;;2.78;;
74267;SDS011;62638;51.362;12.472;2023-05-07T11:56:07;7.43;;;3.13;;
74267;SDS011;62638;51.362;12.472;2023-05-07T11:58:36;6.57;;;3.28;;
74267;SDS011;62638;51.362;12.472;2023-05-07T12:01:01;4.88;;;2.58;;
74267;SDS011;62638;51.362;12.472;2023-05-07T12:03:27;4.07;;;1.80;;
74267;SDS011;62638;51.362;12.472;2023-05-07T12:05:52;4.97;;;2.80;;
74267;SDS011;62638;51.362;12.472;2023-05-07T12:08:18;4.13;;;2.42;;
74267;SDS011;62638;51.362;12.472;2023-05-07T12:10:44;4.97;;;2.67;;
74267;SDS011;62638;51.362;12.472;2023-05-07T12:13:14;4.50;;;2.30;;
74267;SDS011;62638;51.362;12.472;2023-05-07T12:15:40;5.00;;;2.50;;
74267;SDS011;62638;51.362;12.472;2023-05-07T12:18:06;4.05;;;2.40;;
74267;SDS011;62638;51.362;12.472;2023-05-07T12:20:33;4.22;;;2.60;;
74267;SDS011;62638;51.362;12.472;2023-05-07T12:22:59;6.07;;;2.65;;
74267;SDS011;62638;51.362;12.472;2023-05-07T12:25:26;3.28;;;2.42;;
74267;SDS011;62638;51.362;12.472;2023-05-07T12:27:51;6.15;;;3.00;;
74267;SDS011;62638;51.362;12.472;2023-05-07T12:30:17;3.38;;;2.30;;
74267;SDS011;62638;51.362;12.472;2023-05-07T12:32:43;3.83;;;2.17;;
74267;SDS011;62638;51.362;12.472;2023-05-07T12:35:10;4.78;;;2.55;;
74267;SDS011;62638;51.362;12.472;2023-05-07T12:37:35;4.05;;;2.38;;
74267;SDS011;62638;51.362;12.472;2023-05-07T12:40:04;4.43;;;2.53;;
74267;SDS011;62638;51.362;12.472;2023-05-07T12:42:37;3.50;;;1.77;;
74267;SDS011;62638;51.362;12.472;2023-05-07T12:45:11;4.65;;;2.00;;
74267;SDS011;62638;51.362;12.472;2023-05-07T12:47:37;6.35;;;2.20;;
74267;SDS011;62638;51.362;12.472;2023-05-07T12:50:04;3.92;;;2.53;;
74267;SDS011;62638;51.362;12.472;2023-05-07T12:52:31;3.75;;;2.00;;
74267;SDS011;62638;51.362;12.472;2023-05-07T12:54:56;3.80;;;2.15;;
74267;SDS011;62638;51.362;12.472;2023-05-07T12:57:21;3.90;;;1.97;;
74267;SDS011;62638;51.362;12.472;2023-05-07T12:59:47;5.18;;;3.42;;
74267;SDS011;62638;51.362;12.472;2023-05-07T13:02:12;5.37;;;2.80;;
74267;SDS011;62638;51.362;12.472;2023-05-07T13:04:38;4.97;;;2.63;;
74267;SDS011;62638;51.362;12.472;2023-05-07T13:07:03;4.00;;;2.20;;
74267;SDS011;62638;51.362;12.472;2023-05-07T13:09:28;3.00;;;1.95;;
74267;SDS011;62638;51.362;12.472;2023-05-07T13:11:54;3.08;;;1.70;;
74267;SDS011;62638;51.362;12.472;2023-05-07T13:14:20;3.60;;;1.60;;
74267;SDS011;62638;51.362;12.472;2023-05-07T13:16:45;3.03;;;1.90;;
74267;SDS011;62638;51.362;12.472;2023-05-07T13:19:11;3.97;;;2.08;;
74267;SDS011;62638;51.362;12.472;2023-05-07T13:21:36;3.57;;;1.97;;
74267;SDS011;62638;51.362;12.472;2023-05-07T13:24:02;4.07;;;2.15;;
74267;SDS011;62638;51.362;12.472;2023-05-07T13:26:30;2.83;;;1.50;;
74267;SDS011;62638;51.362;12.472;2023-05-07T13:28:56;2.83;;;1.50;;
74267;SDS011;62638;51.362;12.472;2023-05-07T13:31:21;2.77;;;1.80;;
74267;SDS011;62638;51.362;12.472;2023-05-07T13:33:46;3.13;;;1.90;;
74267;SDS011;62638;51.362;12.472;2023-05-07T13:36:12;3.25;;;1.92;;
74267;SDS011;62638;51.362;12.472;2023-05-07T13:38:38;3.17;;;1.63;;
74267;SDS011;62638;51.362;12.472;2023-05-07T13:41:04;3.50;;;1.85;;
74267;SDS011;62638;51.362;12.472;2023-05-07T13:43:29;3.03;;;1.65;;
74267;SDS011;62638;51.362;12.472;2023-05-07T13:45:54;2.73;;;1.60;;
74267;SDS011;62638;51.362;12.472;2023-05-07T13:48:20;2.77;;;1.70;;
74267;SDS011;62638;51.362;12.472;2023-05-07T13:50:45;3.50;;;1.63;;
74267;SDS011;62638;51.362;12.472;2023-05-07T13:53:10;4.83;;;1.70;;
74267;SDS011;62638;51.362;12.472;2023-05-07T13:55:36;2.05;;;1.30;;
74267;SDS011;62638;51.362;12.472;2023-05-07T13:58:01;2.70;;;1.58;;
74267;SDS011;62638;51.362;12.472;2023-05-07T14:00:28;2.60;;;1.67;;
74267;SDS011;62638;51.362;12.472;2023-05-07T14:02:54;3.75;;;1.70;;
74267;SDS011;62638;51.362;12.472;2023-05-07T14:05:21;2.13;;;0.93;;
74267;SDS011;62638;51.362;12.472;2023-05-07T14:07:48;2.08;;;1.13;;
74267;SDS011;62638;51.362;12.472;2023-05-07T14:10:16;3.03;;;1.50;;
74267;SDS011;62638;51.362;12.472;2023-05-07T14:12:41;2.53;;;1.60;;
74267;SDS011;62638;51.362;12.472;2023-05-07T14:15:08;2.00;;;1.33;;
74267;SDS011;62638;51.362;12.472;2023-05-07T14:17:34;1.80;;;1.30;;
74267;SDS011;62638;51.362;12.472;2023-05-07T14:20:00;2.42;;;1.67;;
74267;SDS011;62638;51.362;12.472;2023-05-07T14:22:25;1.73;;;1.40;;
74267;SDS011;62638;51.362;12.472;2023-05-07T14:24:50;2.00;;;1.30;;
74267;SDS011;62638;51.362;12.472;2023-05-07T14:27:15;2.03;;;1.10;;
74267;SDS011;62638;51.362;12.472;2023-05-07T14:29:41;2.03;;;1.40;;
74267;SDS011;62638;51.362;12.472;2023-05-07T14:32:07;2.55;;;1.77;;
74267;SDS011;62638;51.362;12.472;2023-05-07T14:34:32;2.13;;;1.30;;
74267;SDS011;62638;51.362;12.472;2023-05-07T14:36:59;1.73;;;1.00;;
74267;SDS011;62638;51.362;12.472;2023-05-07T14:39:25;2.60;;;1.48;;